• Join FlightAware (Why Join?)
  • Login
  • US Flag 
 
09:53AM EST


 

Airport Tracker/Info


-or-


 

Live Flight TrackerFlight Track Log ✈ DAL3759 ✈ 04-May-2013 ✈ KTVC - KDTW

Flight Track Log - Related Links

Times and Time Zones

All times are in EDT time to prevent confusion due to time zone crossing. See the DAL3759 flight status page for this flight to view local times or setup timezone preferences in your user account.

Time Position Orientation Groundspeed Altitude Reporting Facility
EDT Latitude Longitude Course Direction KTS MPH feet Rate Location/Type
01:57PM 44.7322 -85.6239 134° Southeast 158 182 2,100  Level Minneapolis Center
01:58PM 44.6889 -85.5961 155° Southeast 213 245 4,000 2,340 Climbing Minneapolis Center
01:59PM 44.6406 -85.5331 137° Southeast 228 262 6,900 2,880 Climbing Minneapolis Center
02:00PM 44.4958 -85.3321 138° Southeast  Level FlightAware Approximate
02:00PM 44.5867 -85.4628 137° Southeast 252 290 10,000  Level Minneapolis Center
02:01PM 44.4400 -85.2624 138° Southeast  Level FlightAware Approximate
02:01PM 44.5306 -85.3872 136° Southeast 270 311 11,900  Level Minneapolis Center
02:02PM 44.3798 -85.1805 134° Southeast  Level FlightAware Approximate
02:02PM 44.4653 -85.2964 135° Southeast 314 361 12,700  Level Minneapolis Center
02:03PM 44.3772 -85.1806 137° Southeast 358 412 14,500 1,320 Climbing Minneapolis Center
02:04PM 44.3011 -85.0792 136° Southeast 373 429 15,500 1,020 Climbing Minneapolis Center
02:05PM 44.2231 -84.9761 137° Southeast 382 440 16,600 720 Climbing Minneapolis Center
02:06PM 44.1436 -84.8703 136° Southeast 391 450 17,000 180 Climbing Minneapolis Center
02:07PM 44.0644 -84.7656 136° Southeast 394 453 17,000  Level Minneapolis Center
02:08PM 43.9764 -84.6508 137° Southeast 394 453 17,000  Level Minneapolis Center
02:09PM 43.8800 -84.5261 137° Southeast 394 453 17,100  Climbing Minneapolis Center
02:10PM 43.8003 -84.4225 137° Southeast 393 452 17,100  Level Minneapolis Center
02:11PM 43.7208 -84.3189 137° Southeast 393 452 17,100 -60 Level Minneapolis Center
02:12PM 43.6400 -84.2147 137° Southeast 395 455 17,000  Descending Minneapolis Center
02:13PM 43.5703 -84.1506 146° Southeast 399 459 17,100  Climbing Cleveland Center
02:14PM 43.4617 -84.0897 158° South 404 465 17,100 -60 Level Cleveland Center
02:15PM 43.3592 -84.0325 158° South 397 457 17,000  Descending Cleveland Center
02:16PM 43.2606 -83.9758 157° South 397 457 17,100  Climbing Cleveland Center
02:17PM 43.1581 -83.9189 158° South 392 451 17,100 -300 Level Cleveland Center
02:18PM 43.0761 -83.8747 159° South 392 451 16,600 -1,620 Descending Cleveland Center
02:19PM 42.9653 -83.8092 157° South 377 434 14,000 -2,280 Descending Cleveland Center
02:20PM 42.8647 -83.7531 158° South 387 445 12,100 -1,440 Descending Cleveland Center
02:20PM 42.8297 -83.7314 156° South 365 420 12,000 -120 Descending Cleveland Center
02:21PM 42.7703 -83.6972 157° South 377 434 12,000  Level Cleveland Center
02:21PM 42.7272 -83.6697 155° Southeast 366 421 12,000  Level Cleveland Center
02:22PM 42.6800 -83.6419 157° South 372 428 12,000  Level Cleveland Center
02:22PM 42.6328 -83.6172 159° South 368 423 12,000  Level Cleveland Center
02:23PM 42.5836 -83.5867 155° Southeast 372 428 12,000  Level Cleveland Center
02:23PM 42.5406 -83.5592 155° Southeast 367 422 12,000  Level Cleveland Center
02:24PM 42.4911 -83.5314 157° South 372 428 12,000  Level Cleveland Center
02:24PM 42.4497 -83.5211 170° South 309 356 12,000  Level Cleveland Center
02:25PM 42.4189 -83.5083 163° South 332 382 12,000  Level Cleveland Center
02:25PM 42.3775 -83.4953 167° South 239 275 12,000  Level Cleveland Center
02:26PM 42.3547 -83.4886 168° South 269 310 12,000 -1,140 Level Cleveland Center
02:26PM 42.3128 -83.4922 184° South 229 264 10,900 -1,920 Descending Cleveland Center
02:27PM 42.2839 -83.4908 178° South 239 275 10,100 -2,100 Descending Cleveland Center
02:27PM 42.2481 -83.4978 188° South 230 265 8,800 -1,920 Descending Cleveland Center
02:28PM 42.2228 -83.5078 196° South 230 265 8,200 -1,920 Descending Cleveland Center
02:29PM 42.1931 -83.5289 208° Southwest 203 234 6,900 -2,160 Descending Cleveland Center
02:29PM 42.1489 -83.5519 201° Southwest 209 241 5,200 -1,920 Descending Cleveland Center
02:31PM 42.1022 -83.4967 139° Southeast 211 243 3,000 -1,320 Descending Cleveland Center
02:31PM 42.1308 -83.4419 55° Northeast 185 213 2,500 -780 Descending Cleveland Center
02:32PM 42.1647 -83.4125 33° Northeast 143 165 1,600 -900 Descending Cleveland Center
02:33PM 42.2008 -83.3889 26° Northeast 140 161 800 -840 Descending Cleveland Center